createdAt,value
2019-06-27T00:02:14.253Z,1.90
2019-06-27T00:04:40.332Z,1.10
2019-06-27T00:07:06.393Z,1.50
2019-06-27T00:09:32.449Z,2.30
2019-06-27T00:11:58.403Z,1.50
2019-06-27T00:14:24.346Z,2.10
2019-06-27T00:16:50.357Z,1.93
2019-06-27T00:19:16.304Z,1.50
2019-06-27T00:21:42.268Z,1.53
2019-06-27T00:24:08.230Z,1.13
2019-06-27T00:26:34.179Z,1.27
2019-06-27T00:29:00.220Z,1.53
2019-06-27T00:31:26.186Z,1.30
2019-06-27T00:33:52.165Z,1.20
2019-06-27T00:36:18.132Z,1.50
2019-06-27T00:38:44.221Z,1.43
2019-06-27T00:41:10.238Z,0.90
2019-06-27T00:43:36.212Z,1.37
2019-06-27T00:46:02.174Z,1.00
2019-06-27T00:48:28.146Z,1.37
2019-06-27T00:50:54.082Z,1.80
2019-06-27T00:53:20.041Z,1.83
2019-06-27T00:55:46.026Z,1.73
2019-06-27T00:58:12.085Z,1.90
2019-06-27T01:00:38.261Z,2.00
2019-06-27T01:03:04.198Z,2.07
2019-06-27T01:05:30.189Z,1.63
2019-06-27T01:07:57.261Z,1.37
2019-06-27T01:10:23.238Z,2.07
2019-06-27T01:12:49.272Z,1.50
2019-06-27T01:15:15.211Z,1.80
2019-06-27T01:17:41.186Z,1.70
2019-06-27T01:20:07.152Z,1.27
2019-06-27T01:22:33.104Z,1.27
2019-06-27T01:24:59.073Z,1.47
2019-06-27T01:27:29.971Z,1.20
2019-06-27T01:29:52.882Z,1.43
2019-06-27T01:32:18.830Z,2.10
2019-06-27T01:34:44.776Z,2.23
2019-06-27T01:37:10.718Z,1.27
2019-06-27T01:39:36.667Z,1.37
2019-06-27T01:42:02.624Z,1.63
2019-06-27T01:44:36.326Z,1.73
2019-06-27T01:47:02.782Z,1.23
2019-06-27T01:49:28.825Z,1.43
2019-06-27T01:51:54.796Z,0.90
2019-06-27T01:54:20.752Z,1.67
2019-06-27T01:56:46.767Z,1.87
2019-06-27T01:59:12.718Z,1.63
2019-06-27T02:01:38.695Z,1.60
2019-06-27T02:04:04.666Z,1.47
2019-06-27T02:06:30.726Z,1.33
2019-06-27T02:08:56.774Z,1.23
2019-06-27T02:11:22.731Z,1.47
2019-06-27T02:13:48.679Z,0.93
2019-06-27T02:16:14.644Z,1.23
2019-06-27T02:18:40.708Z,1.60
2019-06-27T02:21:06.666Z,1.27
2019-06-27T02:23:32.668Z,1.50
2019-06-27T02:25:58.731Z,1.47
2019-06-27T02:28:24.690Z,1.10
2019-06-27T02:30:52.553Z,2.60
2019-06-27T02:33:18.493Z,2.10
2019-06-27T02:35:44.475Z,2.73
2019-06-27T02:38:10.566Z,1.47
2019-06-27T02:40:36.621Z,1.43
2019-06-27T02:43:02.564Z,1.50
2019-06-27T02:45:28.498Z,1.07
2019-06-27T02:47:54.463Z,1.23
2019-06-27T02:50:20.508Z,1.03
2019-06-27T02:52:46.587Z,0.97
2019-06-27T02:55:12.614Z,1.63
2019-06-27T02:57:38.546Z,2.63
2019-06-27T03:00:04.489Z,1.00
2019-06-27T03:02:30.481Z,1.50
2019-06-27T03:04:56.587Z,1.97
2019-06-27T03:07:22.557Z,1.40
2019-06-27T03:09:48.633Z,1.33
2019-06-27T03:12:14.677Z,1.40
2019-06-27T03:14:40.682Z,1.27
2019-06-27T03:17:06.763Z,1.37
2019-06-27T03:19:32.737Z,1.40
2019-06-27T03:21:58.807Z,0.93
2019-06-27T03:24:24.770Z,1.50
2019-06-27T03:26:50.817Z,1.80
2019-06-27T03:29:20.264Z,1.30
2019-06-27T03:31:44.644Z,1.67
2019-06-27T03:34:10.636Z,1.60
2019-06-27T03:36:36.668Z,2.27
2019-06-27T03:39:03.912Z,1.13
2019-06-27T03:41:29.978Z,1.40
2019-06-27T03:43:55.948Z,1.67
2019-06-27T03:46:22.044Z,2.03
2019-06-27T03:48:47.985Z,2.10
2019-06-27T03:51:13.944Z,1.10
2019-06-27T03:53:39.940Z,1.27
2019-06-27T03:56:05.979Z,1.30
2019-06-27T03:58:31.930Z,1.23
2019-06-27T04:00:57.974Z,1.50
2019-06-27T04:03:23.908Z,1.20
2019-06-27T04:05:49.888Z,1.63
2019-06-27T04:08:15.842Z,2.03
2019-06-27T04:10:41.912Z,1.40
2019-06-27T04:13:07.866Z,1.20
2019-06-27T04:15:33.806Z,1.47
2019-06-27T04:17:59.763Z,1.37
2019-06-27T04:20:25.701Z,1.27
2019-06-27T04:22:51.656Z,1.60
2019-06-27T04:25:17.603Z,1.23
2019-06-27T04:27:43.583Z,1.27
2019-06-27T04:30:09.558Z,0.90
2019-06-27T04:32:35.536Z,1.40
2019-06-27T04:35:01.484Z,1.20
2019-06-27T04:37:27.553Z,1.60
2019-06-27T04:39:53.593Z,1.43
2019-06-27T04:42:19.589Z,1.73
2019-06-27T04:44:45.626Z,2.80
2019-06-27T04:47:11.622Z,1.57
2019-06-27T04:49:37.681Z,2.03
2019-06-27T04:52:03.759Z,3.27
2019-06-27T04:54:29.840Z,3.47
2019-06-27T04:56:55.875Z,3.53
2019-06-27T04:59:21.839Z,2.90
2019-06-27T05:01:47.796Z,2.80
2019-06-27T05:04:13.750Z,2.80
2019-06-27T05:06:39.713Z,2.63
2019-06-27T05:09:05.685Z,3.90
2019-06-27T05:11:31.793Z,4.20
2019-06-27T05:13:57.763Z,4.20
2019-06-27T05:16:23.720Z,3.83
2019-06-27T05:18:49.703Z,3.60
2019-06-27T05:21:15.767Z,3.73
2019-06-27T05:23:41.822Z,2.63
2019-06-27T05:26:07.780Z,3.30
2019-06-27T05:28:33.740Z,2.57
2019-06-27T05:30:59.707Z,2.73
2019-06-27T05:33:25.680Z,2.23
2019-06-27T05:35:51.634Z,2.33
2019-06-27T05:38:17.687Z,2.00
2019-06-27T05:40:43.629Z,2.63
2019-06-27T05:43:09.625Z,1.97
2019-06-27T05:45:35.604Z,2.70
2019-06-27T05:48:01.566Z,2.70
2019-06-27T05:50:27.602Z,3.17
2019-06-27T05:52:53.700Z,2.37
2019-06-27T05:55:19.641Z,1.73
2019-06-27T05:57:45.652Z,2.77
2019-06-27T06:00:26.537Z,2.50
2019-06-27T06:02:39.600Z,2.40
2019-06-27T06:05:05.579Z,2.73
2019-06-27T06:07:31.654Z,2.17
2019-06-27T06:09:57.708Z,2.73
2019-06-27T06:12:23.674Z,2.00
2019-06-27T06:14:49.655Z,2.27
2019-06-27T06:17:15.695Z,2.67
2019-06-27T06:19:41.649Z,2.97
2019-06-27T06:22:07.621Z,2.50
2019-06-27T06:24:33.564Z,2.47
2019-06-27T06:26:59.559Z,1.60
2019-06-27T06:29:25.598Z,2.00
2019-06-27T06:31:51.626Z,2.10
2019-06-27T06:34:17.572Z,2.37
2019-06-27T06:36:43.528Z,2.20
2019-06-27T06:39:09.508Z,2.43
2019-06-27T06:41:35.465Z,2.17
2019-06-27T06:44:01.459Z,2.33
2019-06-27T06:46:27.400Z,3.43
2019-06-27T06:48:53.358Z,2.50
2019-06-27T06:51:19.323Z,2.50
2019-06-27T06:53:45.296Z,2.83
2019-06-27T06:56:11.256Z,2.27
2019-06-27T06:58:37.311Z,1.87
2019-06-27T07:01:03.261Z,2.20
2019-06-27T07:03:29.230Z,1.57
2019-06-27T07:05:55.165Z,2.50
2019-06-27T07:08:31.885Z,1.77
2019-06-27T07:10:57.944Z,1.87
2019-06-27T07:13:23.917Z,2.20
2019-06-27T07:15:49.955Z,2.20
2019-06-27T07:18:15.924Z,1.97
2019-06-27T07:20:41.986Z,2.50
2019-06-27T07:23:07.943Z,2.27
2019-06-27T07:25:33.901Z,1.93
2019-06-27T07:28:00.234Z,2.07
2019-06-27T07:30:26.205Z,2.00
2019-06-27T07:32:52.158Z,2.63
2019-06-27T07:35:18.549Z,2.40
2019-06-27T07:37:44.571Z,2.20
2019-06-27T07:40:10.537Z,2.43
2019-06-27T07:42:36.513Z,1.97
2019-06-27T07:45:02.574Z,1.70
2019-06-27T07:47:28.538Z,1.90
2019-06-27T07:49:54.604Z,2.33
2019-06-27T07:52:20.655Z,2.13
2019-06-27T07:54:46.709Z,3.00
2019-06-27T07:57:13.208Z,2.10
2019-06-27T07:59:39.267Z,2.43
2019-06-27T08:02:05.241Z,2.23
2019-06-27T08:04:31.189Z,1.63
2019-06-27T08:06:57.150Z,2.80
2019-06-27T08:09:23.117Z,2.47
2019-06-27T08:11:49.074Z,2.00
2019-06-27T08:14:15.014Z,1.63
2019-06-27T08:16:41.107Z,2.77
2019-06-27T08:19:07.061Z,2.03
2019-06-27T08:21:33.064Z,2.10
2019-06-27T08:23:59.140Z,2.30
2019-06-27T08:26:25.163Z,2.07
2019-06-27T08:28:51.119Z,2.13
2019-06-27T08:31:17.135Z,2.33
2019-06-27T08:33:43.121Z,3.43
2019-06-27T08:36:09.057Z,1.63
2019-06-27T08:38:35.004Z,1.30
2019-06-27T08:41:00.946Z,2.27
2019-06-27T08:43:26.913Z,1.90
2019-06-27T08:45:53.056Z,2.40
2019-06-27T08:48:19.092Z,1.93
2019-06-27T08:50:45.150Z,2.10
2019-06-27T08:53:11.143Z,2.30
2019-06-27T08:55:37.088Z,2.03
2019-06-27T08:58:03.969Z,1.70
2019-06-27T09:00:30.005Z,2.50
2019-06-27T09:02:55.970Z,2.27
2019-06-27T09:05:22.002Z,2.07
2019-06-27T09:07:47.996Z,2.27
2019-06-27T09:10:14.046Z,1.93
2019-06-27T09:12:40.122Z,1.83
2019-06-27T09:15:06.151Z,2.23
2019-06-27T09:17:32.106Z,2.57
2019-06-27T09:19:58.085Z,2.73
2019-06-27T09:22:24.055Z,1.47
2019-06-27T09:24:50.002Z,2.33
2019-06-27T09:27:16.065Z,1.93
2019-06-27T09:29:42.117Z,1.70
2019-06-27T09:32:20.982Z,2.20
2019-06-27T09:34:35.944Z,2.90
2019-06-27T09:37:01.943Z,1.53
2019-06-27T09:39:28.067Z,1.90
2019-06-27T09:41:54.184Z,1.80
2019-06-27T09:44:20.165Z,2.17
2019-06-27T09:46:46.145Z,1.90
2019-06-27T09:49:12.131Z,1.90
2019-06-27T09:51:38.090Z,2.07
2019-06-27T09:54:04.046Z,1.97
2019-06-27T09:56:30.008Z,1.87
2019-06-27T09:58:55.967Z,2.00
2019-06-27T10:01:22.032Z,2.27
2019-06-27T10:03:48.002Z,2.03
2019-06-27T10:06:14.078Z,2.20
2019-06-27T10:08:40.025Z,1.70
2019-06-27T10:11:05.962Z,1.10
2019-06-27T10:13:31.950Z,1.90
2019-06-27T10:15:57.912Z,2.03
2019-06-27T10:18:23.862Z,2.07
2019-06-27T10:20:49.950Z,1.73
2019-06-27T10:23:15.953Z,1.83
2019-06-27T10:25:41.942Z,1.97
2019-06-27T10:28:07.889Z,1.70
2019-06-27T10:30:33.859Z,2.00
2019-06-27T10:33:00.512Z,1.97
2019-06-27T10:35:26.780Z,1.93
2019-06-27T10:37:52.737Z,1.77
2019-06-27T10:40:18.693Z,2.50
2019-06-27T10:42:44.656Z,2.00
2019-06-27T10:45:10.606Z,2.03
2019-06-27T10:47:36.577Z,1.63
2019-06-27T10:50:02.637Z,2.03
2019-06-27T10:52:28.681Z,1.87
2019-06-27T10:54:54.680Z,2.17
2019-06-27T10:57:20.694Z,2.20
2019-06-27T10:59:46.658Z,1.37
2019-06-27T11:02:12.633Z,1.47
2019-06-27T11:04:38.674Z,2.00
2019-06-27T11:07:04.631Z,2.53
2019-06-27T11:09:30.650Z,2.27
2019-06-27T11:11:56.677Z,1.87
2019-06-27T11:14:22.609Z,2.03
2019-06-27T11:16:48.616Z,1.77
2019-06-27T11:19:14.639Z,1.33
2019-06-27T11:21:40.604Z,1.93
2019-06-27T11:24:06.571Z,2.07
2019-06-27T11:26:32.549Z,1.80
2019-06-27T11:28:58.627Z,2.37
2019-06-27T11:31:24.664Z,1.37
2019-06-27T11:33:50.606Z,1.37
2019-06-27T11:36:16.560Z,1.67
2019-06-27T11:38:42.525Z,2.33
2019-06-27T11:41:08.625Z,2.07
2019-06-27T11:43:34.694Z,1.87
2019-06-27T11:46:00.744Z,1.70
2019-06-27T11:48:26.699Z,1.67
2019-06-27T11:50:52.879Z,1.30
2019-06-27T11:53:18.918Z,1.60
2019-06-27T11:55:44.874Z,2.23
2019-06-27T11:58:10.829Z,1.53
2019-06-27T12:00:36.777Z,1.60
2019-06-27T12:03:02.747Z,2.10
2019-06-27T12:05:28.805Z,2.00
2019-06-27T12:07:54.889Z,1.73
2019-06-27T12:10:20.827Z,1.70
2019-06-27T12:12:46.812Z,1.90
2019-06-27T12:15:12.842Z,1.93
2019-06-27T12:17:38.853Z,1.53
2019-06-27T12:20:04.895Z,1.83
2019-06-27T12:22:30.862Z,2.00
2019-06-27T12:24:56.833Z,1.67
2019-06-27T12:27:22.794Z,2.03
2019-06-27T12:29:48.790Z,1.97
2019-06-27T12:32:14.760Z,2.00
2019-06-27T12:34:40.713Z,1.37
2019-06-27T12:37:06.698Z,1.97
2019-06-27T12:39:32.757Z,1.90
2019-06-27T12:41:58.685Z,1.87
2019-06-27T12:44:24.642Z,1.80
2019-06-27T12:46:50.683Z,1.43
2019-06-27T12:49:16.635Z,1.50
2019-06-27T12:51:42.603Z,1.30
2019-06-27T12:54:08.676Z,1.60
2019-06-27T12:56:34.638Z,1.63
2019-06-27T12:59:00.711Z,1.80
2019-06-27T13:01:27.009Z,1.83
2019-06-27T13:03:53.363Z,1.77
2019-06-27T13:06:19.433Z,1.90
2019-06-27T13:08:45.510Z,2.10
2019-06-27T13:11:11.567Z,1.60
2019-06-27T13:13:37.500Z,1.80
2019-06-27T13:16:03.458Z,1.23
2019-06-27T13:18:29.436Z,1.30
2019-06-27T13:20:58.287Z,2.13
2019-06-27T13:23:23.363Z,1.97
2019-06-27T13:25:49.403Z,1.57
2019-06-27T13:28:15.369Z,1.63
2019-06-27T13:30:41.418Z,1.40
2019-06-27T13:33:07.384Z,1.83
2019-06-27T13:35:33.383Z,1.30
2019-06-27T13:37:59.445Z,1.90
2019-06-27T13:40:25.500Z,1.70
2019-06-27T13:42:54.587Z,1.60
2019-06-27T13:45:19.326Z,1.87
2019-06-27T13:47:45.318Z,1.97
2019-06-27T13:50:11.253Z,1.70
2019-06-27T13:52:37.209Z,2.03
2019-06-27T13:55:03.180Z,1.83
2019-06-27T13:57:29.146Z,2.03
2019-06-27T13:59:55.106Z,1.57
2019-06-27T14:02:21.187Z,1.90
2019-06-27T14:04:56.559Z,2.13
2019-06-27T14:07:14.979Z,2.40
2019-06-27T14:09:52.349Z,1.43
2019-06-27T14:12:08.814Z,2.27
2019-06-27T14:14:34.783Z,1.90
2019-06-27T14:17:00.740Z,1.77
2019-06-27T14:19:26.710Z,1.53
2019-06-27T14:21:52.646Z,1.70
2019-06-27T14:24:18.635Z,1.50
2019-06-27T14:26:44.672Z,1.60
2019-06-27T14:29:10.637Z,1.87
2019-06-27T14:31:36.579Z,1.40
2019-06-27T14:34:02.577Z,1.50
2019-06-27T14:36:28.623Z,1.73
2019-06-27T14:38:54.688Z,2.00
2019-06-27T14:41:20.712Z,1.80
2019-06-27T14:43:46.685Z,1.57
2019-06-27T14:46:12.630Z,1.60
2019-06-27T14:48:38.582Z,2.33
2019-06-27T14:51:04.525Z,2.23
2019-06-27T14:53:30.492Z,1.47
2019-06-27T14:55:56.425Z,1.10
2019-06-27T14:58:22.381Z,1.63
2019-06-27T15:00:48.355Z,1.63
2019-06-27T15:03:14.293Z,1.53
2019-06-27T15:05:40.359Z,2.00
2019-06-27T15:08:06.294Z,1.50
2019-06-27T15:10:32.260Z,1.63
2019-06-27T15:12:58.217Z,1.53
2019-06-27T15:15:24.179Z,1.97
2019-06-27T15:17:50.228Z,1.80
2019-06-27T15:20:16.313Z,1.23
2019-06-27T15:22:42.279Z,1.27
2019-06-27T15:25:08.340Z,1.57
2019-06-27T15:27:34.409Z,1.80
2019-06-27T15:30:00.368Z,1.53
2019-06-27T15:32:26.421Z,1.70
2019-06-27T15:34:52.394Z,2.00
2019-06-27T15:37:18.470Z,1.57
2019-06-27T15:39:44.425Z,1.57
2019-06-27T15:42:10.495Z,1.53
2019-06-27T15:44:36.536Z,1.87
2019-06-27T15:47:02.599Z,1.03
2019-06-27T15:49:30.202Z,1.60
2019-06-27T15:51:59.627Z,1.50
2019-06-27T15:54:24.370Z,1.53
2019-06-27T15:56:50.429Z,2.00
2019-06-27T15:59:16.410Z,1.13
2019-06-27T16:01:42.477Z,2.00
2019-06-27T16:04:08.517Z,1.70
2019-06-27T16:06:34.513Z,1.27
2019-06-27T16:09:00.578Z,2.33
2019-06-27T16:11:26.522Z,1.60
2019-06-27T16:13:52.576Z,1.27
2019-06-27T16:16:18.639Z,1.40
2019-06-27T16:18:44.612Z,1.43
2019-06-27T16:21:10.579Z,1.23
2019-06-27T16:23:36.546Z,1.67
2019-06-27T16:26:02.538Z,1.10
2019-06-27T16:28:28.533Z,1.20
2019-06-27T16:30:54.584Z,1.43
2019-06-27T16:33:20.567Z,1.30
2019-06-27T16:35:46.601Z,1.50
2019-06-27T16:38:12.653Z,1.90
2019-06-27T16:40:38.595Z,1.27
2019-06-27T16:43:04.560Z,1.10
2019-06-27T16:45:30.549Z,1.37
2019-06-27T16:47:56.636Z,1.63
2019-06-27T16:50:22.578Z,1.33
2019-06-27T16:52:48.580Z,1.63
2019-06-27T16:55:14.543Z,1.63
2019-06-27T16:57:40.633Z,1.30
2019-06-27T17:00:06.766Z,1.10
2019-06-27T17:02:32.989Z,1.10
2019-06-27T17:04:58.967Z,1.80
2019-06-27T17:07:25.017Z,1.33
2019-06-27T17:09:50.972Z,1.27
2019-06-27T17:12:16.927Z,1.50
2019-06-27T17:14:42.863Z,1.50
2019-06-27T17:17:09.135Z,1.07
2019-06-27T17:19:35.115Z,2.00
2019-06-27T17:22:01.161Z,1.33
2019-06-27T17:24:27.153Z,1.33
2019-06-27T17:26:53.128Z,1.83
2019-06-27T17:29:19.200Z,1.30
2019-06-27T17:31:45.181Z,1.57
2019-06-27T17:34:14.116Z,1.50
2019-06-27T17:36:39.119Z,2.57
2019-06-27T17:39:05.065Z,1.43
2019-06-27T17:41:31.060Z,1.30
2019-06-27T17:43:57.120Z,1.40
2019-06-27T17:46:25.523Z,1.10
2019-06-27T17:48:51.474Z,1.90
2019-06-27T17:51:17.416Z,1.10
2019-06-27T17:53:43.405Z,1.50
2019-06-27T17:56:09.456Z,1.03
2019-06-27T17:58:35.426Z,1.10
2019-06-27T18:01:01.388Z,1.00
2019-06-27T18:03:27.471Z,1.63
2019-06-27T18:05:53.453Z,2.07
2019-06-27T18:08:19.516Z,2.30
2019-06-27T18:10:45.508Z,1.70
2019-06-27T18:13:11.547Z,1.43
2019-06-27T18:15:37.536Z,1.53
2019-06-27T18:18:03.572Z,1.60
2019-06-27T18:20:30.314Z,2.13
2019-06-27T18:22:56.286Z,1.40
2019-06-27T18:25:22.334Z,1.20
2019-06-27T18:27:48.422Z,1.23
2019-06-27T18:30:14.391Z,1.20
2019-06-27T18:32:40.354Z,1.60
2019-06-27T18:35:06.386Z,0.97
2019-06-27T18:37:32.540Z,1.93
2019-06-27T18:39:58.610Z,1.47
2019-06-27T18:42:24.573Z,1.50
2019-06-27T18:44:50.518Z,1.53
2019-06-27T18:47:16.479Z,1.37
2019-06-27T18:49:42.561Z,1.30
2019-06-27T18:52:08.533Z,1.10
2019-06-27T18:54:34.482Z,1.43
2019-06-27T18:57:00.434Z,1.47
2019-06-27T18:59:26.390Z,1.43
2019-06-27T19:01:52.354Z,1.57
2019-06-27T19:04:18.298Z,0.80
2019-06-27T19:06:44.306Z,1.77
2019-06-27T19:09:10.368Z,0.90
2019-06-27T19:11:36.321Z,0.90
2019-06-27T19:14:02.298Z,0.83
2019-06-27T19:16:28.352Z,1.10
2019-06-27T19:19:05.612Z,0.90
2019-06-27T19:21:33.480Z,1.10
2019-06-27T19:24:19.863Z,1.10
2019-06-27T19:26:46.830Z,1.10
2019-06-27T19:29:12.907Z,1.10
2019-06-27T19:31:38.967Z,1.03
2019-06-27T19:34:05.038Z,1.00
2019-06-27T19:36:31.107Z,0.90
2019-06-27T19:38:57.166Z,0.90
2019-06-27T19:41:23.130Z,0.90
2019-06-27T19:43:49.076Z,1.03
2019-06-27T19:46:15.048Z,0.83
2019-06-27T19:48:40.983Z,1.13
2019-06-27T19:51:06.970Z,1.00
2019-06-27T19:53:32.961Z,1.53
2019-06-27T19:55:58.954Z,0.90
2019-06-27T19:58:24.918Z,1.10
2019-06-27T20:00:50.915Z,1.10
2019-06-27T20:03:16.925Z,0.97
2019-06-27T20:05:42.931Z,1.23
2019-06-27T20:08:19.187Z,0.90
2019-06-27T20:10:37.659Z,0.90
2019-06-27T20:13:03.698Z,1.13
2019-06-27T20:15:29.652Z,1.50
2019-06-27T20:17:55.618Z,1.27
2019-06-27T20:20:21.589Z,0.90
2019-06-27T20:22:47.541Z,1.23
2019-06-27T20:25:13.605Z,0.90
2019-06-27T20:27:39.830Z,1.47
2019-06-27T20:30:05.780Z,0.97
2019-06-27T20:32:31.753Z,1.27
2019-06-27T20:34:57.721Z,1.40
2019-06-27T20:37:26.699Z,1.47
2019-06-27T20:39:51.784Z,0.90
2019-06-27T20:44:57.448Z,0.87
2019-06-27T20:47:23.387Z,0.90
2019-06-27T20:49:49.378Z,1.33
2019-06-27T20:52:15.421Z,0.80
2019-06-27T20:54:41.407Z,1.43
2019-06-27T20:57:08.310Z,1.00
2019-06-27T20:59:34.352Z,1.63
2019-06-27T21:02:00.336Z,0.93
2019-06-27T21:04:26.385Z,1.10
2019-06-27T21:06:52.346Z,1.03
2019-06-27T21:09:18.298Z,1.43
2019-06-27T21:11:44.341Z,0.93
2019-06-27T21:14:10.277Z,0.77
2019-06-27T21:16:36.254Z,1.00
2019-06-27T21:19:02.296Z,1.00
2019-06-27T21:21:28.268Z,1.00
2019-06-27T21:23:54.245Z,0.70
2019-06-27T21:26:20.241Z,1.10
2019-06-27T21:28:46.187Z,1.00
2019-06-27T21:31:12.138Z,1.13
2019-06-27T21:33:38.096Z,1.00
2019-06-27T21:36:04.075Z,0.90
2019-06-27T21:38:30.017Z,1.00
2019-06-27T21:40:56.015Z,1.00
2019-06-27T21:43:21.953Z,0.80
2019-06-27T21:45:48.026Z,0.90
2019-06-27T21:48:13.969Z,1.37
2019-06-27T21:50:39.953Z,0.80
2019-06-27T21:53:06.001Z,1.00
2019-06-27T21:55:31.981Z,0.80
2019-06-27T21:58:00.180Z,0.80
2019-06-27T22:00:27.191Z,0.80
2019-06-27T22:02:53.291Z,0.87
2019-06-27T22:05:19.381Z,0.80
2019-06-27T22:07:45.337Z,1.67
2019-06-27T22:10:11.299Z,0.90
2019-06-27T22:12:37.254Z,0.97
2019-06-27T22:15:03.430Z,0.90
2019-06-27T22:17:29.465Z,1.43
2019-06-27T22:19:55.627Z,0.83
2019-06-27T22:22:21.589Z,1.53
2019-06-27T22:24:47.559Z,1.00
2019-06-27T22:27:13.757Z,1.10
2019-06-27T22:29:39.912Z,1.03
2019-06-27T22:32:05.964Z,1.17
2019-06-27T22:34:31.930Z,0.87
2019-06-27T22:37:02.581Z,0.90
2019-06-27T22:39:47.153Z,1.40
2019-06-27T22:42:32.071Z,1.07
2019-06-27T22:45:16.731Z,1.00
2019-06-27T22:48:01.565Z,0.80
2019-06-27T22:50:46.056Z,1.10
2019-06-27T22:53:29.334Z,1.30
2019-06-27T22:55:55.503Z,1.00
2019-06-27T22:58:21.441Z,0.70
2019-06-27T23:00:47.532Z,1.57
2019-06-27T23:03:13.675Z,1.00
2019-06-27T23:05:39.654Z,0.80
2019-06-27T23:08:06.661Z,0.80
2019-06-27T23:10:32.602Z,0.70
2019-06-27T23:12:58.562Z,0.90
2019-06-27T23:15:24.533Z,0.80
2019-06-27T23:17:50.610Z,0.63
2019-06-27T23:20:16.566Z,0.73
2019-06-27T23:22:42.522Z,1.00
2019-06-27T23:25:08.545Z,1.50
2019-06-27T23:27:34.533Z,0.93
2019-06-27T23:30:00.572Z,1.13
2019-06-27T23:32:26.564Z,1.00
2019-06-27T23:34:52.628Z,0.80
2019-06-27T23:37:18.660Z,0.90
2019-06-27T23:39:44.599Z,1.30
2019-06-27T23:42:10.555Z,1.00
2019-06-27T23:44:36.502Z,0.83
2019-06-27T23:47:02.470Z,1.17
2019-06-27T23:49:28.508Z,1.10
2019-06-27T23:51:54.464Z,0.73
2019-06-27T23:54:20.407Z,0.80
2019-06-27T23:56:46.386Z,1.40
2019-06-27T23:59:12.346Z,0.80
